• Join FlightAware (Why Join?)
  • Login
  • US Flag 
08:51PM EDT


 

Airport Tracker/Info


-or-


 

Live Flight TrackerFlight Track Log ✈ EJA583 ✈ 11-Sep-2013 ✈ KSLC - KJAC

Flight Track Log - Related Links

Times and Time Zones

All times are in EDT time to prevent confusion due to time zone crossing. See the EJA583 flight status page for this flight to view local times or setup timezone preferences in your user account.

Time Position Orientation Groundspeed Altitude Reporting Facility
EDT Latitude Longitude Course Direction KTS MPH feet Rate Location/Type
08:31AM 40.7692 -111.9639 205° Southwest 184 212 4,900  Level Salt Lake Center
08:31AM 40.7481 -111.9767 205° Southwest 217 250 5,700 2,820 Climbing Salt Lake Center
08:32AM 40.7550 -112.0678 276° West 273 314 8,900 2,940 Climbing Salt Lake Center
08:32AM 40.7733 -112.0922 315° West 277 319 9,800 2,220 Climbing Salt Lake Center
08:33AM 40.8181 -112.1369 323° Northwest 310 357 11,200 2,100 Climbing Salt Lake Center
08:33AM 40.8481 -112.1356 North 316 364 11,900 2,400 Climbing Salt Lake Center
08:34AM 40.9197 -112.0742 33° Northeast 307 353 14,600 2,340 Climbing Salt Lake Center
08:35AM 40.9919 -112.0142 32° Northeast 304 350 16,700 1,140 Climbing Salt Lake Center
08:36AM 41.0725 -111.9486 32° Northeast 338 389 17,000 120 Climbing Salt Lake Center
08:37AM 41.1633 -111.8836 28° Northeast 362 417 17,000  Level Salt Lake Center
08:38AM 41.2653 -111.8389 18° North 381 438 17,000  Level Salt Lake Center
08:39AM 41.3642 -111.7936 19° North 376 433 17,000  Level Salt Lake Center
08:40AM 41.4622 -111.7492 19° North 372 428 17,000  Level Salt Lake Center
08:41AM 41.5611 -111.7047 19° North 376 433 17,000  Level Salt Lake Center
08:42AM 41.6606 -111.6586 19° North 378 435 17,000  Level Salt Lake Center
08:43AM 41.7589 -111.6144 19° North 375 432 17,000  Level Salt Lake Center
08:44AM 41.8508 -111.5722 19° North 357 411 17,000  Level Salt Lake Center
08:45AM 41.9403 -111.5311 19° North 344 396 17,000  Level Salt Lake Center
08:46AM 42.0311 -111.4911 18° North 343 395 17,000  Level Salt Lake Center
08:47AM 42.1267 -111.4453 20° North 360 414 17,000  Level Salt Lake Center
08:48AM 42.2264 -111.4000 19° North 374 430 17,100  Climbing Salt Lake Center
08:49AM 42.3258 -111.3539 19° North 377 434 17,100  Level Salt Lake Center
08:50AM 42.4269 -111.3075 19° North 382 440 17,100  Level Salt Lake Center
08:52AM 42.5269 -111.2578 20° North 383 441 17,100  Level Salt Lake Center
08:53AM 42.6269 -111.2131 18° North 381 438 17,100 -60 Level Salt Lake Center
08:54AM 42.7303 -111.1639 19° North 383 441 17,000 -60 Descending Salt Lake Center
08:55AM 42.8286 -111.1161 20° North 376 433 17,000 -600 Level Salt Lake Center
08:56AM 42.9214 -111.0708 20° North 359 413 15,900 -1,020 Descending Salt Lake Center
08:57AM 43.0147 -111.0269 19° North 354 407 15,000 -600 Descending Salt Lake Center
08:58AM 43.1114 -110.9803 19° North 365 420 14,700 -960 Descending Salt Lake Center
08:59AM 43.2028 -110.9367 19° North 351 404 13,100 -1,020 Descending Salt Lake Center
09:00AM 43.2922 -110.8931 20° North 342 394 12,700 -1,080 Descending Salt Lake Center
09:01AM 43.3719 -110.8544 19° North 315 362 11,000 -1,680 Descending Salt Lake Center
09:02AM 43.4550 -110.8133 20° North 280 322 9,300 -1,440 Descending Salt Lake Center
09:03AM 43.5114 -110.7853 20° North 239 275 8,200 -960 Descending Salt Lake Center
09:04AM 43.5500 -110.7658 20° North 183 211 7,400 -720 Descending Salt Lake Center
09:05AM 43.5806 -110.7506 20° North 144 166 6,800 -600 Descending Salt Lake Center